sensor_id;sensor_type;location;lat;lon;timestamp;temperature;humidity
59007;DHT22;44792;52.760;6.726;2023-03-14T00:00:10;10.40;99.90
59007;DHT22;44792;52.760;6.726;2023-03-14T00:02:36;10.40;99.90
59007;DHT22;44792;52.760;6.726;2023-03-14T00:05:02;10.40;99.90
59007;DHT22;44792;52.760;6.726;2023-03-14T00:07:35;10.30;99.90
59007;DHT22;44792;52.760;6.726;2023-03-14T00:10:06;10.30;99.90
59007;DHT22;44792;52.760;6.726;2023-03-14T00:12:32;10.40;99.90
59007;DHT22;44792;52.760;6.726;2023-03-14T00:14:58;10.40;99.90
59007;DHT22;44792;52.760;6.726;2023-03-14T00:17:26;10.40;99.90
59007;DHT22;44792;52.760;6.726;2023-03-14T00:19:52;10.40;99.90
59007;DHT22;44792;52.760;6.726;2023-03-14T00:22:20;10.50;99.90
59007;DHT22;44792;52.760;6.726;2023-03-14T00:24:46;10.50;99.90
59007;DHT22;44792;52.760;6.726;2023-03-14T00:27:11;10.40;99.90
59007;DHT22;44792;52.760;6.726;2023-03-14T00:29:37;10.40;99.90
59007;DHT22;44792;52.760;6.726;2023-03-14T00:32:03;10.40;99.90
59007;DHT22;44792;52.760;6.726;2023-03-14T00:34:29;10.30;99.90
59007;DHT22;44792;52.760;6.726;2023-03-14T00:36:55;10.30;99.90
59007;DHT22;44792;52.760;6.726;2023-03-14T00:39:20;10.30;99.90
59007;DHT22;44792;52.760;6.726;2023-03-14T00:41:46;10.30;99.90
59007;DHT22;44792;52.760;6.726;2023-03-14T00:44:12;10.30;99.90
59007;DHT22;44792;52.760;6.726;2023-03-14T00:46:38;10.30;99.90
59007;DHT22;44792;52.760;6.726;2023-03-14T00:49:04;10.30;99.90
59007;DHT22;44792;52.760;6.726;2023-03-14T00:51:30;10.20;99.90
59007;DHT22;44792;52.760;6.726;2023-03-14T00:53:55;10.20;99.90
59007;DHT22;44792;52.760;6.726;2023-03-14T00:56:21;10.20;99.90
59007;DHT22;44792;52.760;6.726;2023-03-14T00:58:46;10.20;99.90
59007;DHT22;44792;52.760;6.726;2023-03-14T01:01:15;10.20;99.90
59007;DHT22;44792;52.760;6.726;2023-03-14T01:03:41;10.30;99.90
59007;DHT22;44792;52.760;6.726;2023-03-14T01:08:33;10.20;99.90
59007;DHT22;44792;52.760;6.726;2023-03-14T01:10:59;10.20;99.90
59007;DHT22;44792;52.760;6.726;2023-03-14T01:13:24;10.10;99.90
59007;DHT22;44792;52.760;6.726;2023-03-14T01:15:50;10.20;99.90
59007;DHT22;44792;52.760;6.726;2023-03-14T01:18:15;10.10;99.90
59007;DHT22;44792;52.760;6.726;2023-03-14T01:20:41;10.10;99.90
59007;DHT22;44792;52.760;6.726;2023-03-14T01:23:06;10.10;99.90
59007;DHT22;44792;52.760;6.726;2023-03-14T01:25:32;10.10;99.90
59007;DHT22;44792;52.760;6.726;2023-03-14T01:27:58;10.00;99.90
59007;DHT22;44792;52.760;6.726;2023-03-14T01:30:23;10.00;99.90
59007;DHT22;44792;52.760;6.726;2023-03-14T01:32:49;9.90;99.90
59007;DHT22;44792;52.760;6.726;2023-03-14T01:35:14;9.90;99.90
59007;DHT22;44792;52.760;6.726;2023-03-14T01:37:40;9.90;99.90
59007;DHT22;44792;52.760;6.726;2023-03-14T01:40:06;9.90;99.90
59007;DHT22;44792;52.760;6.726;2023-03-14T01:42:31;9.90;99.90
59007;DHT22;44792;52.760;6.726;2023-03-14T01:45:00;9.90;99.90
59007;DHT22;44792;52.760;6.726;2023-03-14T01:47:26;9.90;99.90
59007;DHT22;44792;52.760;6.726;2023-03-14T01:50:08;9.90;99.90
59007;DHT22;44792;52.760;6.726;2023-03-14T01:52:39;9.90;99.90
59007;DHT22;44792;52.760;6.726;2023-03-14T01:55:12;9.90;99.90
59007;DHT22;44792;52.760;6.726;2023-03-14T01:57:44;9.90;99.90
59007;DHT22;44792;52.760;6.726;2023-03-14T02:00:16;10.00;99.90
59007;DHT22;44792;52.760;6.726;2023-03-14T02:02:50;10.00;99.90
59007;DHT22;44792;52.760;6.726;2023-03-14T02:05:23;10.00;99.90
59007;DHT22;44792;52.760;6.726;2023-03-14T02:07:52;10.00;99.90
59007;DHT22;44792;52.760;6.726;2023-03-14T02:10:20;10.00;99.90
59007;DHT22;44792;52.760;6.726;2023-03-14T02:12:50;10.00;99.90
59007;DHT22;44792;52.760;6.726;2023-03-14T02:15:18;10.00;99.90
59007;DHT22;44792;52.760;6.726;2023-03-14T02:17:44;10.00;99.90
59007;DHT22;44792;52.760;6.726;2023-03-14T02:20:28;10.10;99.90
59007;DHT22;44792;52.760;6.726;2023-03-14T02:22:56;10.00;99.90
59007;DHT22;44792;52.760;6.726;2023-03-14T02:28:09;10.00;99.90
59007;DHT22;44792;52.760;6.726;2023-03-14T02:30:35;10.00;99.90
59007;DHT22;44792;52.760;6.726;2023-03-14T02:33:05;10.00;99.90
59007;DHT22;44792;52.760;6.726;2023-03-14T02:35:43;10.00;99.90
59007;DHT22;44792;52.760;6.726;2023-03-14T02:38:35;10.00;99.90
59007;DHT22;44792;52.760;6.726;2023-03-14T02:41:04;10.00;99.90
59007;DHT22;44792;52.760;6.726;2023-03-14T02:43:29;10.00;99.90
59007;DHT22;44792;52.760;6.726;2023-03-14T02:45:55;10.10;99.90
59007;DHT22;44792;52.760;6.726;2023-03-14T02:48:28;10.10;99.90
59007;DHT22;44792;52.760;6.726;2023-03-14T02:50:57;10.00;99.90
59007;DHT22;44792;52.760;6.726;2023-03-14T02:53:30;10.00;99.90
59007;DHT22;44792;52.760;6.726;2023-03-14T02:55:57;10.00;99.90
59007;DHT22;44792;52.760;6.726;2023-03-14T02:58:23;10.00;99.90
59007;DHT22;44792;52.760;6.726;2023-03-14T03:00:48;10.00;99.90
59007;DHT22;44792;52.760;6.726;2023-03-14T03:03:14;9.90;99.90
59007;DHT22;44792;52.760;6.726;2023-03-14T03:05:40;9.90;99.90
59007;DHT22;44792;52.760;6.726;2023-03-14T03:08:05;9.90;99.90
59007;DHT22;44792;52.760;6.726;2023-03-14T03:10:32;9.90;99.90
59007;DHT22;44792;52.760;6.726;2023-03-14T03:12:57;9.80;99.90
59007;DHT22;44792;52.760;6.726;2023-03-14T03:15:23;9.80;99.90
59007;DHT22;44792;52.760;6.726;2023-03-14T03:17:49;9.80;99.90
59007;DHT22;44792;52.760;6.726;2023-03-14T03:20:14;9.80;99.90
59007;DHT22;44792;52.760;6.726;2023-03-14T03:22:41;9.70;99.90
59007;DHT22;44792;52.760;6.726;2023-03-14T03:25:07;9.70;99.90
59007;DHT22;44792;52.760;6.726;2023-03-14T03:27:35;9.70;99.90
59007;DHT22;44792;52.760;6.726;2023-03-14T03:30:02;9.70;99.90
59007;DHT22;44792;52.760;6.726;2023-03-14T03:32:28;9.70;99.90
59007;DHT22;44792;52.760;6.726;2023-03-14T03:34:53;9.70;99.90
59007;DHT22;44792;52.760;6.726;2023-03-14T03:37:19;9.70;99.90
59007;DHT22;44792;52.760;6.726;2023-03-14T03:39:45;9.60;99.90
59007;DHT22;44792;52.760;6.726;2023-03-14T03:42:10;9.70;99.90
59007;DHT22;44792;52.760;6.726;2023-03-14T03:44:36;9.70;99.90
59007;DHT22;44792;52.760;6.726;2023-03-14T03:47:02;9.60;99.90
59007;DHT22;44792;52.760;6.726;2023-03-14T03:49:29;9.60;99.90
59007;DHT22;44792;52.760;6.726;2023-03-14T03:51:55;9.60;99.90
59007;DHT22;44792;52.760;6.726;2023-03-14T03:54:21;9.60;99.90
59007;DHT22;44792;52.760;6.726;2023-03-14T03:56:46;9.60;99.90
59007;DHT22;44792;52.760;6.726;2023-03-14T03:59:12;9.50;99.90
59007;DHT22;44792;52.760;6.726;2023-03-14T04:01:38;9.60;99.90
59007;DHT22;44792;52.760;6.726;2023-03-14T04:04:03;9.60;99.90
59007;DHT22;44792;52.760;6.726;2023-03-14T04:06:29;9.60;99.90
59007;DHT22;44792;52.760;6.726;2023-03-14T04:08:55;9.60;99.90
59007;DHT22;44792;52.760;6.726;2023-03-14T04:11:20;9.60;99.90
59007;DHT22;44792;52.760;6.726;2023-03-14T04:13:46;9.60;99.90
59007;DHT22;44792;52.760;6.726;2023-03-14T04:16:15;9.60;99.90
59007;DHT22;44792;52.760;6.726;2023-03-14T04:18:42;9.60;99.90
59007;DHT22;44792;52.760;6.726;2023-03-14T04:21:07;9.60;99.90
59007;DHT22;44792;52.760;6.726;2023-03-14T04:23:33;9.50;99.90
59007;DHT22;44792;52.760;6.726;2023-03-14T04:25:59;9.50;99.90
59007;DHT22;44792;52.760;6.726;2023-03-14T04:28:24;9.50;99.90
59007;DHT22;44792;52.760;6.726;2023-03-14T04:30:50;9.50;99.90
59007;DHT22;44792;52.760;6.726;2023-03-14T04:33:16;9.50;99.90
59007;DHT22;44792;52.760;6.726;2023-03-14T04:35:43;9.50;99.90
59007;DHT22;44792;52.760;6.726;2023-03-14T04:38:10;9.40;99.90
59007;DHT22;44792;52.760;6.726;2023-03-14T04:40:40;9.40;99.90
59007;DHT22;44792;52.760;6.726;2023-03-14T04:43:06;9.40;99.90
59007;DHT22;44792;52.760;6.726;2023-03-14T04:45:32;9.40;99.90
59007;DHT22;44792;52.760;6.726;2023-03-14T04:47:57;9.40;99.90
59007;DHT22;44792;52.760;6.726;2023-03-14T04:50:23;9.40;99.90
59007;DHT22;44792;52.760;6.726;2023-03-14T04:52:49;9.40;99.90
59007;DHT22;44792;52.760;6.726;2023-03-14T04:55:14;9.40;99.90
59007;DHT22;44792;52.760;6.726;2023-03-14T04:57:40;9.40;99.90
59007;DHT22;44792;52.760;6.726;2023-03-14T05:00:06;9.40;99.90
59007;DHT22;44792;52.760;6.726;2023-03-14T05:02:33;9.50;99.90
59007;DHT22;44792;52.760;6.726;2023-03-14T05:04:58;9.30;99.90
59007;DHT22;44792;52.760;6.726;2023-03-14T05:07:24;9.40;99.90
59007;DHT22;44792;52.760;6.726;2023-03-14T05:09:50;9.40;99.90
59007;DHT22;44792;52.760;6.726;2023-03-14T05:12:15;9.40;99.90
59007;DHT22;44792;52.760;6.726;2023-03-14T05:14:41;9.40;99.90
59007;DHT22;44792;52.760;6.726;2023-03-14T05:17:06;9.40;99.90
59007;DHT22;44792;52.760;6.726;2023-03-14T05:19:32;9.40;99.90
59007;DHT22;44792;52.760;6.726;2023-03-14T05:21:57;9.40;99.90
59007;DHT22;44792;52.760;6.726;2023-03-14T05:24:23;9.40;99.90
59007;DHT22;44792;52.760;6.726;2023-03-14T05:26:49;9.40;99.90
59007;DHT22;44792;52.760;6.726;2023-03-14T05:29:14;9.40;99.90
59007;DHT22;44792;52.760;6.726;2023-03-14T05:31:40;9.40;99.90
59007;DHT22;44792;52.760;6.726;2023-03-14T05:34:05;9.30;99.90
59007;DHT22;44792;52.760;6.726;2023-03-14T05:36:31;9.40;99.90
59007;DHT22;44792;52.760;6.726;2023-03-14T05:38:56;9.30;99.90
59007;DHT22;44792;52.760;6.726;2023-03-14T05:41:22;9.40;99.90
59007;DHT22;44792;52.760;6.726;2023-03-14T05:43:48;9.30;99.90
59007;DHT22;44792;52.760;6.726;2023-03-14T05:46:13;9.30;99.90
59007;DHT22;44792;52.760;6.726;2023-03-14T05:48:39;9.30;99.90
59007;DHT22;44792;52.760;6.726;2023-03-14T05:51:05;9.30;99.90
59007;DHT22;44792;52.760;6.726;2023-03-14T05:53:30;9.20;99.90
59007;DHT22;44792;52.760;6.726;2023-03-14T05:55:56;9.30;99.90
59007;DHT22;44792;52.760;6.726;2023-03-14T05:58:22;9.30;99.90
59007;DHT22;44792;52.760;6.726;2023-03-14T06:00:48;9.30;99.90
59007;DHT22;44792;52.760;6.726;2023-03-14T06:03:13;9.30;99.90
59007;DHT22;44792;52.760;6.726;2023-03-14T06:05:39;9.30;99.90
59007;DHT22;44792;52.760;6.726;2023-03-14T06:08:05;9.30;99.90
59007;DHT22;44792;52.760;6.726;2023-03-14T06:10:30;9.20;99.90
59007;DHT22;44792;52.760;6.726;2023-03-14T06:12:56;9.20;99.90
59007;DHT22;44792;52.760;6.726;2023-03-14T06:15:21;9.20;99.90
59007;DHT22;44792;52.760;6.726;2023-03-14T06:17:47;9.20;99.90
59007;DHT22;44792;52.760;6.726;2023-03-14T06:20:13;9.30;99.90
59007;DHT22;44792;52.760;6.726;2023-03-14T06:22:39;9.30;99.90
59007;DHT22;44792;52.760;6.726;2023-03-14T06:25:06;9.30;99.90
59007;DHT22;44792;52.760;6.726;2023-03-14T06:27:32;9.30;99.90
59007;DHT22;44792;52.760;6.726;2023-03-14T06:29:58;9.40;99.90
59007;DHT22;44792;52.760;6.726;2023-03-14T06:32:24;9.30;99.90
59007;DHT22;44792;52.760;6.726;2023-03-14T06:34:50;9.30;99.90
59007;DHT22;44792;52.760;6.726;2023-03-14T06:37:16;9.30;99.90
59007;DHT22;44792;52.760;6.726;2023-03-14T06:39:41;9.30;99.90
59007;DHT22;44792;52.760;6.726;2023-03-14T06:42:09;9.30;99.90
59007;DHT22;44792;52.760;6.726;2023-03-14T06:44:35;9.30;99.90
59007;DHT22;44792;52.760;6.726;2023-03-14T06:47:00;9.30;99.90
59007;DHT22;44792;52.760;6.726;2023-03-14T06:49:26;9.30;99.90
59007;DHT22;44792;52.760;6.726;2023-03-14T06:51:51;9.30;99.90
59007;DHT22;44792;52.760;6.726;2023-03-14T06:54:17;9.40;99.90
59007;DHT22;44792;52.760;6.726;2023-03-14T06:56:43;9.40;99.90
59007;DHT22;44792;52.760;6.726;2023-03-14T06:59:08;9.40;99.90
59007;DHT22;44792;52.760;6.726;2023-03-14T07:01:34;9.40;99.90
59007;DHT22;44792;52.760;6.726;2023-03-14T07:04:01;9.40;99.90
59007;DHT22;44792;52.760;6.726;2023-03-14T07:06:26;9.40;99.90
59007;DHT22;44792;52.760;6.726;2023-03-14T07:08:55;9.40;99.90
59007;DHT22;44792;52.760;6.726;2023-03-14T07:11:21;9.40;99.90
59007;DHT22;44792;52.760;6.726;2023-03-14T07:13:46;9.40;99.90
59007;DHT22;44792;52.760;6.726;2023-03-14T07:16:12;9.40;99.90
59007;DHT22;44792;52.760;6.726;2023-03-14T07:18:38;9.40;99.90
59007;DHT22;44792;52.760;6.726;2023-03-14T07:21:05;9.40;99.90
59007;DHT22;44792;52.760;6.726;2023-03-14T07:23:30;9.50;99.90
59007;DHT22;44792;52.760;6.726;2023-03-14T07:25:56;9.40;99.90
59007;DHT22;44792;52.760;6.726;2023-03-14T07:28:22;9.50;99.90
59007;DHT22;44792;52.760;6.726;2023-03-14T07:30:48;9.40;99.90
59007;DHT22;44792;52.760;6.726;2023-03-14T07:33:14;9.40;99.90
59007;DHT22;44792;52.760;6.726;2023-03-14T07:35:40;9.40;99.90
59007;DHT22;44792;52.760;6.726;2023-03-14T07:38:06;9.40;99.90
59007;DHT22;44792;52.760;6.726;2023-03-14T07:40:31;9.30;99.90
59007;DHT22;44792;52.760;6.726;2023-03-14T07:42:57;9.30;99.90
59007;DHT22;44792;52.760;6.726;2023-03-14T07:45:22;9.30;99.90
59007;DHT22;44792;52.760;6.726;2023-03-14T07:47:48;9.20;99.90
59007;DHT22;44792;52.760;6.726;2023-03-14T07:50:14;9.20;99.90
59007;DHT22;44792;52.760;6.726;2023-03-14T07:52:39;9.10;99.90
59007;DHT22;44792;52.760;6.726;2023-03-14T07:55:05;8.70;99.90
59007;DHT22;44792;52.760;6.726;2023-03-14T07:57:31;8.60;99.90
59007;DHT22;44792;52.760;6.726;2023-03-14T07:59:57;8.30;99.90
59007;DHT22;44792;52.760;6.726;2023-03-14T08:02:22;8.20;99.90
59007;DHT22;44792;52.760;6.726;2023-03-14T08:04:49;7.90;99.90
59007;DHT22;44792;52.760;6.726;2023-03-14T08:07:15;7.60;99.90
59007;DHT22;44792;52.760;6.726;2023-03-14T08:09:41;7.50;99.90
59007;DHT22;44792;52.760;6.726;2023-03-14T08:12:07;7.30;99.90
59007;DHT22;44792;52.760;6.726;2023-03-14T08:14:33;7.20;99.90
59007;DHT22;44792;52.760;6.726;2023-03-14T08:16:58;7.10;99.90
59007;DHT22;44792;52.760;6.726;2023-03-14T08:19:24;7.00;99.90
59007;DHT22;44792;52.760;6.726;2023-03-14T08:21:50;7.00;99.90
59007;DHT22;44792;52.760;6.726;2023-03-14T08:24:16;6.90;99.90
59007;DHT22;44792;52.760;6.726;2023-03-14T08:26:42;6.90;99.90
59007;DHT22;44792;52.760;6.726;2023-03-14T08:29:07;6.90;99.90
59007;DHT22;44792;52.760;6.726;2023-03-14T08:31:34;6.70;99.90
59007;DHT22;44792;52.760;6.726;2023-03-14T08:34:01;6.60;99.90
59007;DHT22;44792;52.760;6.726;2023-03-14T08:36:27;6.40;99.90
59007;DHT22;44792;52.760;6.726;2023-03-14T08:38:53;6.10;99.90
59007;DHT22;44792;52.760;6.726;2023-03-14T08:41:19;6.00;99.90
59007;DHT22;44792;52.760;6.726;2023-03-14T08:43:44;6.00;99.90
59007;DHT22;44792;52.760;6.726;2023-03-14T08:46:10;6.10;99.90
59007;DHT22;44792;52.760;6.726;2023-03-14T08:48:35;5.90;99.90
59007;DHT22;44792;52.760;6.726;2023-03-14T08:51:10;6.00;99.90
59007;DHT22;44792;52.760;6.726;2023-03-14T08:53:39;6.10;99.90
59007;DHT22;44792;52.760;6.726;2023-03-14T08:56:05;5.90;99.90
59007;DHT22;44792;52.760;6.726;2023-03-14T08:58:32;5.90;99.90
59007;DHT22;44792;52.760;6.726;2023-03-14T09:00:58;6.00;99.90
59007;DHT22;44792;52.760;6.726;2023-03-14T09:03:24;6.00;99.90
59007;DHT22;44792;52.760;6.726;2023-03-14T09:05:51;5.90;99.90
59007;DHT22;44792;52.760;6.726;2023-03-14T09:08:17;5.80;99.90
59007;DHT22;44792;52.760;6.726;2023-03-14T09:10:42;5.90;99.90
59007;DHT22;44792;52.760;6.726;2023-03-14T09:13:08;5.90;99.90
59007;DHT22;44792;52.760;6.726;2023-03-14T09:15:33;6.00;99.90
59007;DHT22;44792;52.760;6.726;2023-03-14T09:17:59;6.00;99.90
59007;DHT22;44792;52.760;6.726;2023-03-14T09:20:25;6.00;99.90
59007;DHT22;44792;52.760;6.726;2023-03-14T09:22:50;6.00;99.90
59007;DHT22;44792;52.760;6.726;2023-03-14T09:25:16;6.00;99.90
59007;DHT22;44792;52.760;6.726;2023-03-14T09:27:42;6.10;99.90
59007;DHT22;44792;52.760;6.726;2023-03-14T09:30:08;6.00;99.90
59007;DHT22;44792;52.760;6.726;2023-03-14T09:32:34;6.10;99.90
59007;DHT22;44792;52.760;6.726;2023-03-14T09:35:00;6.20;99.90
59007;DHT22;44792;52.760;6.726;2023-03-14T09:37:26;6.30;99.90
59007;DHT22;44792;52.760;6.726;2023-03-14T09:39:51;6.30;99.90
59007;DHT22;44792;52.760;6.726;2023-03-14T09:42:19;6.30;99.90
59007;DHT22;44792;52.760;6.726;2023-03-14T09:45:03;6.30;99.90
59007;DHT22;44792;52.760;6.726;2023-03-14T09:47:31;6.30;99.90
59007;DHT22;44792;52.760;6.726;2023-03-14T09:49:59;6.40;99.90
59007;DHT22;44792;52.760;6.726;2023-03-14T09:52:32;6.50;99.90
59007;DHT22;44792;52.760;6.726;2023-03-14T09:55:06;6.60;99.90
59007;DHT22;44792;52.760;6.726;2023-03-14T09:57:35;6.60;99.90
59007;DHT22;44792;52.760;6.726;2023-03-14T10:00:25;6.80;99.90
59007;DHT22;44792;52.760;6.726;2023-03-14T10:03:20;6.80;99.90
59007;DHT22;44792;52.760;6.726;2023-03-14T10:05:42;6.80;99.90
59007;DHT22;44792;52.760;6.726;2023-03-14T10:08:12;6.90;99.90
59007;DHT22;44792;52.760;6.726;2023-03-14T10:10:38;6.80;99.90
59007;DHT22;44792;52.760;6.726;2023-03-14T10:15:35;6.90;99.90
59007;DHT22;44792;52.760;6.726;2023-03-14T10:18:03;7.00;99.90
59007;DHT22;44792;52.760;6.726;2023-03-14T10:20:44;6.80;99.90
59007;DHT22;44792;52.760;6.726;2023-03-14T10:25:46;6.90;99.90
59007;DHT22;44792;52.760;6.726;2023-03-14T10:28:24;6.90;99.90
59007;DHT22;44792;52.760;6.726;2023-03-14T10:30:50;7.00;99.90
59007;DHT22;44792;52.760;6.726;2023-03-14T10:33:23;6.90;99.90
59007;DHT22;44792;52.760;6.726;2023-03-14T10:35:56;6.80;99.90
59007;DHT22;44792;52.760;6.726;2023-03-14T10:38:25;6.70;99.90
59007;DHT22;44792;52.760;6.726;2023-03-14T10:40:53;6.80;99.90
59007;DHT22;44792;52.760;6.726;2023-03-14T10:43:23;6.80;99.90
59007;DHT22;44792;52.760;6.726;2023-03-14T10:45:57;7.00;99.90
59007;DHT22;44792;52.760;6.726;2023-03-14T10:48:24;7.00;99.90
59007;DHT22;44792;52.760;6.726;2023-03-14T10:50:55;7.10;99.90
59007;DHT22;44792;52.760;6.726;2023-03-14T10:53:22;7.10;99.90
59007;DHT22;44792;52.760;6.726;2023-03-14T10:55:47;7.10;99.90
59007;DHT22;44792;52.760;6.726;2023-03-14T10:58:27;7.10;99.90
59007;DHT22;44792;52.760;6.726;2023-03-14T11:04:08;7.10;99.90
59007;DHT22;44792;52.760;6.726;2023-03-14T11:06:50;7.20;99.90
59007;DHT22;44792;52.760;6.726;2023-03-14T11:09:43;7.10;99.90
59007;DHT22;44792;52.760;6.726;2023-03-14T11:15:53;7.10;99.90
59007;DHT22;44792;52.760;6.726;2023-03-14T11:25:43;7.20;99.90
59007;DHT22;44792;52.760;6.726;2023-03-14T11:30:54;7.20;99.90
59007;DHT22;44792;52.760;6.726;2023-03-14T11:33:27;7.20;99.90
59007;DHT22;44792;52.760;6.726;2023-03-14T11:36:12;7.30;99.90
59007;DHT22;44792;52.760;6.726;2023-03-14T11:38:49;7.30;99.90
59007;DHT22;44792;52.760;6.726;2023-03-14T11:41:38;7.40;99.90
59007;DHT22;44792;52.760;6.726;2023-03-14T11:44:15;7.40;99.90
59007;DHT22;44792;52.760;6.726;2023-03-14T11:47:00;7.40;99.90
59007;DHT22;44792;52.760;6.726;2023-03-14T11:52:17;7.30;99.90
59007;DHT22;44792;52.760;6.726;2023-03-14T11:57:32;7.30;99.90
59007;DHT22;44792;52.760;6.726;2023-03-14T12:05:31;7.40;99.90
59007;DHT22;44792;52.760;6.726;2023-03-14T12:10:25;7.60;99.90
59007;DHT22;44792;52.760;6.726;2023-03-14T12:12:51;7.50;99.90
59007;DHT22;44792;52.760;6.726;2023-03-14T12:15:21;7.50;99.90
59007;DHT22;44792;52.760;6.726;2023-03-14T12:17:54;7.30;99.90
59007;DHT22;44792;52.760;6.726;2023-03-14T12:20:22;7.20;99.90
59007;DHT22;44792;52.760;6.726;2023-03-14T12:22:55;7.20;99.90
59007;DHT22;44792;52.760;6.726;2023-03-14T12:25:24;7.30;99.90
59007;DHT22;44792;52.760;6.726;2023-03-14T12:35:52;7.60;99.90
59007;DHT22;44792;52.760;6.726;2023-03-14T12:41:36;7.60;99.90
59007;DHT22;44792;52.760;6.726;2023-03-14T12:46:59;7.30;99.90
59007;DHT22;44792;52.760;6.726;2023-03-14T12:49:32;7.30;99.90
59007;DHT22;44792;52.760;6.726;2023-03-14T12:52:01;7.30;99.90
59007;DHT22;44792;52.760;6.726;2023-03-14T12:59:56;7.40;99.90
59007;DHT22;44792;52.760;6.726;2023-03-14T13:02:26;7.50;99.90
59007;DHT22;44792;52.760;6.726;2023-03-14T13:05:04;7.50;99.90
59007;DHT22;44792;52.760;6.726;2023-03-14T13:10:30;7.50;99.90
59007;DHT22;44792;52.760;6.726;2023-03-14T13:13:01;7.50;99.90
59007;DHT22;44792;52.760;6.726;2023-03-14T13:15:33;7.50;99.90
59007;DHT22;44792;52.760;6.726;2023-03-14T13:18:07;7.60;99.90
59007;DHT22;44792;52.760;6.726;2023-03-14T13:20:55;7.60;99.90
59007;DHT22;44792;52.760;6.726;2023-03-14T13:23:26;7.70;99.90
59007;DHT22;44792;52.760;6.726;2023-03-14T13:25:52;7.80;99.90
59007;DHT22;44792;52.760;6.726;2023-03-14T13:28:18;7.80;99.90
59007;DHT22;44792;52.760;6.726;2023-03-14T13:30:46;7.80;99.90
59007;DHT22;44792;52.760;6.726;2023-03-14T13:33:15;7.90;99.90
59007;DHT22;44792;52.760;6.726;2023-03-14T13:35:44;8.00;99.90
59007;DHT22;44792;52.760;6.726;2023-03-14T13:38:22;8.10;99.90
59007;DHT22;44792;52.760;6.726;2023-03-14T13:40:49;8.10;99.90
59007;DHT22;44792;52.760;6.726;2023-03-14T13:43:20;8.10;99.90
59007;DHT22;44792;52.760;6.726;2023-03-14T13:45:53;8.10;99.90
59007;DHT22;44792;52.760;6.726;2023-03-14T13:48:20;8.10;99.90
59007;DHT22;44792;52.760;6.726;2023-03-14T13:50:53;8.10;99.90
59007;DHT22;44792;52.760;6.726;2023-03-14T13:53:19;8.10;99.90
59007;DHT22;44792;52.760;6.726;2023-03-14T13:55:45;8.10;99.90
59007;DHT22;44792;52.760;6.726;2023-03-14T13:58:20;8.10;99.90
59007;DHT22;44792;52.760;6.726;2023-03-14T14:00:55;8.10;99.90
59007;DHT22;44792;52.760;6.726;2023-03-14T14:03:22;8.10;99.90
59007;DHT22;44792;52.760;6.726;2023-03-14T14:05:48;8.10;99.90
59007;DHT22;44792;52.760;6.726;2023-03-14T14:08:14;8.10;99.90
59007;DHT22;44792;52.760;6.726;2023-03-14T14:10:39;8.10;99.90
59007;DHT22;44792;52.760;6.726;2023-03-14T14:13:08;8.00;99.90
59007;DHT22;44792;52.760;6.726;2023-03-14T14:15:41;8.00;99.90
59007;DHT22;44792;52.760;6.726;2023-03-14T14:18:11;7.90;99.90
59007;DHT22;44792;52.760;6.726;2023-03-14T14:20:43;7.80;99.90
59007;DHT22;44792;52.760;6.726;2023-03-14T14:23:21;7.80;99.90
59007;DHT22;44792;52.760;6.726;2023-03-14T14:25:51;7.60;99.90
59007;DHT22;44792;52.760;6.726;2023-03-14T14:28:24;7.60;99.90
59007;DHT22;44792;52.760;6.726;2023-03-14T14:33:44;7.50;99.90
59007;DHT22;44792;52.760;6.726;2023-03-14T14:37:01;7.50;99.90
59007;DHT22;44792;52.760;6.726;2023-03-14T14:39:17;7.50;99.90
59007;DHT22;44792;52.760;6.726;2023-03-14T14:41:44;7.60;99.90
59007;DHT22;44792;52.760;6.726;2023-03-14T14:44:13;7.60;99.90
59007;DHT22;44792;52.760;6.726;2023-03-14T14:46:42;7.70;99.90
59007;DHT22;44792;52.760;6.726;2023-03-14T14:49:14;7.60;99.90
59007;DHT22;44792;52.760;6.726;2023-03-14T14:51:48;7.70;99.90
59007;DHT22;44792;52.760;6.726;2023-03-14T14:54:17;7.60;99.90
59007;DHT22;44792;52.760;6.726;2023-03-14T14:56:49;7.60;99.90
59007;DHT22;44792;52.760;6.726;2023-03-14T14:59:42;7.60;99.90
59007;DHT22;44792;52.760;6.726;2023-03-14T15:02:30;7.70;99.90
59007;DHT22;44792;52.760;6.726;2023-03-14T15:04:56;7.70;99.90
59007;DHT22;44792;52.760;6.726;2023-03-14T15:07:21;7.60;99.90
59007;DHT22;44792;52.760;6.726;2023-03-14T15:09:47;7.60;99.90
59007;DHT22;44792;52.760;6.726;2023-03-14T15:12:13;7.60;99.90
59007;DHT22;44792;52.760;6.726;2023-03-14T15:14:38;7.60;99.90
59007;DHT22;44792;52.760;6.726;2023-03-14T15:17:08;7.60;99.90
59007;DHT22;44792;52.760;6.726;2023-03-14T15:19:34;7.60;99.90
59007;DHT22;44792;52.760;6.726;2023-03-14T15:22:00;7.50;99.90
59007;DHT22;44792;52.760;6.726;2023-03-14T15:24:26;7.60;99.90
59007;DHT22;44792;52.760;6.726;2023-03-14T15:26:51;7.60;99.90
59007;DHT22;44792;52.760;6.726;2023-03-14T15:29:17;7.50;99.90
59007;DHT22;44792;52.760;6.726;2023-03-14T15:31:43;7.60;99.90
59007;DHT22;44792;52.760;6.726;2023-03-14T15:34:09;7.60;99.90
59007;DHT22;44792;52.760;6.726;2023-03-14T15:36:36;7.60;99.90
59007;DHT22;44792;52.760;6.726;2023-03-14T15:39:04;7.70;99.90
59007;DHT22;44792;52.760;6.726;2023-03-14T15:41:29;7.70;99.90
59007;DHT22;44792;52.760;6.726;2023-03-14T15:43:55;7.70;99.90
59007;DHT22;44792;52.760;6.726;2023-03-14T15:46:21;7.70;99.90
59007;DHT22;44792;52.760;6.726;2023-03-14T15:48:48;7.60;99.90
59007;DHT22;44792;52.760;6.726;2023-03-14T15:51:15;7.60;99.90
59007;DHT22;44792;52.760;6.726;2023-03-14T15:53:41;7.60;99.90
59007;DHT22;44792;52.760;6.726;2023-03-14T15:56:15;7.40;99.90
59007;DHT22;44792;52.760;6.726;2023-03-14T15:58:42;7.40;99.90
59007;DHT22;44792;52.760;6.726;2023-03-14T16:01:12;7.40;99.90
59007;DHT22;44792;52.760;6.726;2023-03-14T16:03:37;7.30;99.90
59007;DHT22;44792;52.760;6.726;2023-03-14T16:06:04;7.30;99.90
59007;DHT22;44792;52.760;6.726;2023-03-14T16:08:29;7.20;99.90
59007;DHT22;44792;52.760;6.726;2023-03-14T16:10:57;7.10;99.90
59007;DHT22;44792;52.760;6.726;2023-03-14T16:13:23;7.10;99.90
59007;DHT22;44792;52.760;6.726;2023-03-14T16:15:54;7.10;99.90
59007;DHT22;44792;52.760;6.726;2023-03-14T16:18:19;7.00;99.90
59007;DHT22;44792;52.760;6.726;2023-03-14T16:20:52;7.00;99.90
59007;DHT22;44792;52.760;6.726;2023-03-14T16:23:17;7.00;99.90
59007;DHT22;44792;52.760;6.726;2023-03-14T16:25:44;6.90;99.90
59007;DHT22;44792;52.760;6.726;2023-03-14T16:28:09;6.90;99.90
59007;DHT22;44792;52.760;6.726;2023-03-14T16:30:35;6.90;99.90
59007;DHT22;44792;52.760;6.726;2023-03-14T16:33:00;6.80;99.90
59007;DHT22;44792;52.760;6.726;2023-03-14T16:35:26;6.90;99.90
59007;DHT22;44792;52.760;6.726;2023-03-14T16:37:52;6.90;99.90
59007;DHT22;44792;52.760;6.726;2023-03-14T16:40:18;6.80;99.90
59007;DHT22;44792;52.760;6.726;2023-03-14T16:42:43;6.90;99.90
59007;DHT22;44792;52.760;6.726;2023-03-14T16:45:09;6.80;99.90
59007;DHT22;44792;52.760;6.726;2023-03-14T16:47:35;6.80;99.90
59007;DHT22;44792;52.760;6.726;2023-03-14T16:50:00;6.80;99.90
59007;DHT22;44792;52.760;6.726;2023-03-14T16:52:27;6.70;99.90